CPX217 Details

Departure: Sacramento International Airport (KSMF) at 0520 UTC
Arrival: Chicago/Rockford International Airport (KRFD) at 0955 UTC
Route: SCTWN2 RALEY INSLO DTA DBL J60 IOW PLL


Current Weather Information
KSMF 190653Z 00000KT 10SM FEW180 FEW250 12/08 A2992 RMK AO2 SLP131 T01220078
KRFD 190654Z 00000KT 10SM BKN180 M02/M05 A3039 RMK AO2 SLP297 T10221050